»·PEaware :: SWA1850 KTUS-KELP

SWA1850 :: KTUS-KELP

FLIGHT INFORMATION

Flight Status: Arrived
Operator:
Southwest Airlines
More flights by this operator :: More flights under this callsign
Pilot: Jacob H. (10561)
Aircraft: BOEING 737-800
(B738)
More flights by this aircraft type
Origin: KTUS Tucson Intl
United States
Destination: KELP El Paso Intl
United States
More flights between these airports :: More routes between these airports
Route: +WLDKT3 SSO TEEES MOLLY4
File this flight plan on PilotEdge
Remarks:
Altitude:
(Current/Filed)
35,000ft
Speed:
(Current/Filed)
453kts
Departed: 10-Jan-18 05:38 PM
Arrived: 10-Jan-18 06:24 PM
Distance/Time
Traveled:
232nm/0:45
Distance/Time
To Go:
Arrived

Flight Plot

Page will automatically refresh every two minutes.

Flight plan parsing failed; only flown route is shown


Map Options




Map Legend


Flown Route
Filed Route
Departure Airport
Arrival Airport
Navaid (VOR, NDB)
Fix

Horizontal Profiles

Position Reports

Time Latitude Longitude Heading Altitude Ground
Speed
10-Jan-18 16:53 32.119431 -110.938033 96 2601ft 0kts
10-Jan-18 16:54 32.119431 -110.938033 96 2601ft 0kts
10-Jan-18 16:55 32.119431 -110.938033 96 2601ft 0kts
10-Jan-18 16:56 32.119431 -110.938033 96 2601ft 0kts
10-Jan-18 16:57 32.119431 -110.938033 96 2601ft 0kts
10-Jan-18 16:58 32.119431 -110.938033 96 2601ft 0kts
10-Jan-18 16:59 32.119431 -110.938033 96 2601ft 0kts
10-Jan-18 17:00 32.119431 -110.938033 96 2601ft 0kts
10-Jan-18 17:01 32.119431 -110.938033 96 2601ft 0kts
10-Jan-18 17:02 32.119431 -110.938033 96 2601ft 0kts
10-Jan-18 17:03 32.119431 -110.938033 96 2601ft 0kts
10-Jan-18 17:04 32.119431 -110.938033 96 2601ft 0kts
10-Jan-18 17:05 32.119431 -110.938033 96 2601ft 0kts
10-Jan-18 17:06 32.119431 -110.938033 96 2601ft 0kts
10-Jan-18 17:07 32.119431 -110.938033 96 2601ft 0kts
10-Jan-18 17:08 32.119431 -110.938033 96 2601ft 0kts
10-Jan-18 17:09 32.119431 -110.938033 96 2601ft 0kts
10-Jan-18 17:10 32.119431 -110.938033 96 2601ft 0kts
10-Jan-18 17:11 32.119431 -110.938033 96 2601ft 0kts
10-Jan-18 17:12 32.119431 -110.938033 96 2601ft 0kts
10-Jan-18 17:13 32.119431 -110.938033 96 2601ft 0kts
10-Jan-18 17:14 32.119431 -110.938033 96 2601ft 0kts
10-Jan-18 17:15 32.119431 -110.938034 96 2601ft 0kts
10-Jan-18 17:16 32.119431 -110.938034 96 2601ft 0kts
10-Jan-18 17:17 32.119431 -110.938034 96 2601ft 0kts
10-Jan-18 17:18 32.119431 -110.938034 96 2601ft 0kts
10-Jan-18 17:19 32.119431 -110.938034 96 2601ft 0kts
10-Jan-18 17:20 32.119431 -110.938034 96 2601ft 0kts
10-Jan-18 17:21 32.119431 -110.938034 96 2601ft 0kts
10-Jan-18 17:22 32.119431 -110.938034 96 2601ft 0kts
10-Jan-18 17:23 32.119431 -110.938034 96 2601ft 0kts
10-Jan-18 17:24 32.119445 -110.938181 96 2601ft 2kts
10-Jan-18 17:25 32.119205 -110.938785 64 2601ft 2kts
10-Jan-18 17:26 32.119292 -110.939350 138 2601ft 0kts
10-Jan-18 17:27 32.119292 -110.939350 138 2601ft 0kts
10-Jan-18 17:28 32.119292 -110.939350 138 2601ft 0kts
10-Jan-18 17:29 32.119292 -110.939350 138 2601ft 0kts
10-Jan-18 17:30 32.118989 -110.938984 133 2601ft 14kts
10-Jan-18 17:31 32.116379 -110.937215 135 2609ft 12kts
10-Jan-18 17:32 32.111750 -110.931873 134 2625ft 21kts
10-Jan-18 17:33 32.108628 -110.928157 135 2635ft 20kts
10-Jan-18 17:34 32.105776 -110.924825 136 2646ft 4kts
10-Jan-18 17:35 32.103863 -110.922562 134 2653ft 5kts
10-Jan-18 17:36 32.103802 -110.922489 134 2654ft 0kts
10-Jan-18 17:37 32.103802 -110.922489 134 2654ft 0kts
10-Jan-18 17:38 32.103696 -110.922361 134 2654ft 0kts
10-Jan-18 17:39 32.103696 -110.922361 134 2654ft 0kts
10-Jan-18 17:40 32.103255 -110.921964 175 2655ft 4kts
10-Jan-18 17:41 32.102878 -110.922206 220 2654ft 0kts
10-Jan-18 17:42 32.102374 -110.922863 242 2653ft 6kts
10-Jan-18 17:43 32.102474 -110.923378 311 2652ft 0kts
10-Jan-18 17:44 32.109734 -110.931937 314 2625ft 118kts
10-Jan-18 17:45 32.143159 -110.974211 310 4521ft 213kts
10-Jan-18 17:46 32.186943 -111.033936 310 6638ft 268kts
10-Jan-18 17:47 32.238566 -111.097166 334 10085ft 287kts
10-Jan-18 17:48 32.315880 -111.075090 44 13180ft 330kts
10-Jan-18 17:49 32.330910 -110.961836 92 16280ft 385kts
10-Jan-18 17:50 32.319875 -110.834181 89 19299ft 402kts
10-Jan-18 17:51 32.326166 -110.703487 81 21852ft 415kts
10-Jan-18 17:52 32.328828 -110.566549 91 24349ft 430kts
10-Jan-18 17:53 32.323090 -110.423168 88 24930ft 445kts
10-Jan-18 17:54 32.315809 -110.278455 89 25372ft 448kts
10-Jan-18 17:55 32.308579 -110.131604 89 25918ft 455kts
10-Jan-18 17:56 32.301421 -109.982982 88 28089ft 463kts
10-Jan-18 17:57 32.294211 -109.829266 88 29601ft 485kts
10-Jan-18 17:58 32.286960 -109.670562 88 31526ft 490kts
10-Jan-18 17:59 32.279768 -109.508781 88 32927ft 505kts
10-Jan-18 18:00 32.272609 -109.342854 88 34399ft 519kts
10-Jan-18 18:01 32.269276 -109.173306 85 34994ft 524kts
10-Jan-18 18:02 32.269091 -109.001120 85 34996ft 524kts
10-Jan-18 18:03 32.269056 -108.832007 85 34998ft 524kts
10-Jan-18 18:04 32.267593 -108.662152 97 34938ft 530kts
10-Jan-18 18:05 32.201656 -108.508899 118 33597ft 538kts
10-Jan-18 18:06 32.145441 -108.351388 89 31879ft 524kts
10-Jan-18 18:07 32.184223 -108.200677 42 30137ft 485kts
10-Jan-18 18:08 32.246207 -108.060329 80 28995ft 522kts
10-Jan-18 18:09 32.205035 -107.896629 120 27312ft 542kts
10-Jan-18 18:10 32.176282 -107.732470 75 25409ft 512kts
10-Jan-18 18:11 32.161337 -107.565031 104 25004ft 532kts
10-Jan-18 18:12 32.138858 -107.395789 95 25002ft 529kts
10-Jan-18 18:13 32.118770 -107.226458 94 22631ft 515kts
10-Jan-18 18:14 32.100539 -107.065406 93 19409ft 470kts
10-Jan-18 18:15 32.084644 -106.922686 93 16660ft 420kts
10-Jan-18 18:16 32.070134 -106.788320 93 14117ft 410kts
10-Jan-18 18:17 32.049291 -106.666876 104 11957ft 364kts
10-Jan-18 18:18 32.022239 -106.557376 106 10205ft 321kts
10-Jan-18 18:19 31.999268 -106.466154 106 8613ft 269kts
10-Jan-18 18:20 31.979771 -106.381319 106 8013ft 271kts
10-Jan-18 18:21 31.966821 -106.296429 106 7999ft 259kts
10-Jan-18 18:22 31.950547 -106.214303 129 7994ft 248kts
10-Jan-18 18:23 31.897202 -106.171633 157 8053ft 241kts
10-Jan-18 18:24 31.836043 -106.164215 207 7439ft 231kts
10-Jan-18 18:25 31.786792 -106.201201 252 6704ft 194kts
10-Jan-18 18:26 31.795223 -106.256131 277 6128ft 136kts
10-Jan-18 18:27 31.797597 -106.299413 271 4845ft 130kts
10-Jan-18 18:28 31.799796 -106.337921 272 4321ft 108kts
10-Jan-18 18:29 31.801238 -106.373953 272 3947ft 61kts
10-Jan-18 18:30 31.800548 -106.377472 185 3943ft 0kts
10-Jan-18 18:31 31.799870 -106.378849 268 3941ft 7kts
10-Jan-18 18:32 31.799907 -106.383811 270 3937ft 17kts
10-Jan-18 18:33 31.799867 -106.387758 270 3929ft 13kts
10-Jan-18 18:34 31.799852 -106.391407 261 3925ft 2kts
10-Jan-18 18:35 31.799375 -106.392901 287 3924ft 0kts
10-Jan-18 18:36 31.799668 -106.392998 359 3925ft 6kts
10-Jan-18 18:37 31.799803 -106.392994 359 3925ft 0kts
10-Jan-18 18:38 31.799803 -106.392994 359 3925ft 0kts
10-Jan-18 18:39 31.799803 -106.392994 359 3925ft 0kts
10-Jan-18 18:40 31.799803 -106.392994 359 3925ft 0kts
10-Jan-18 18:41 31.799803 -106.392994 359 3925ft 0kts
10-Jan-18 18:42 31.799803 -106.392994 359 3925ft 0kts
10-Jan-18 18:43 31.799803 -106.392994 359 3925ft 0kts
10-Jan-18 18:44 31.799803 -106.392994 359 3925ft 0kts

Navigation Log

Ident Type
Flight plan parsing failed, navigation log unavailable